Wan Hai 221 — S6SK — position and weather

sailwx.info

Track history (hours):
 
Tides and Currents Weather Stations Pressure Air Temp Water Temp Dewpoint Dewpoint Depression Visibility Wind Speed Wind Dir Waves Ship Positions

Wan Hai 221

Last reported at 2018-Jul-16 15:49 UTC. Time now 2018-Jul-22 12:41 UTC.
Position N 22°20' E 114°07'.

Length 162 m; draft 5.3 m.

Type: Cargo ship. MMSI: 564461570.

Date/timePositionNaut miles runAvg speedWind from/ knotsBaromVisibWave heightAir tempDewpointWater temp
2018-Jul-16 15:49N 22°20' E 114°07'1 0.1
2018-Jul-15 23:49N 22°21' E 114°07'31012.9
2018-Jul-14 23:46N 22°32' E 119°42'515.1
2018-Jul-14 23:28N 22°32' E 119°47'815.1
2018-Jul-14 22:57N 22°32' E 119°56'714.9
2018-Jul-14 22:30N 22°32' E 120°03'714.7
2018-Jul-14 22:00N 22°32' E 120°11'612.3
2018-Jul-14 21:30N 22°33' E 120°18'2 3.7
2018-Jul-14 21:00N 22°35' E 120°18'0 0.1
2018-Jul-14 20:19N 22°35' E 120°18'0 0.0
2018-Jul-14 18:43N 22°35' E 120°18'0 0.0
2018-Jul-14 18:13N 22°35' E 120°18'0 0.0
2018-Jul-14 17:07N 22°35' E 120°18'0 0.0
2018-Jul-14 16:49N 22°35' E 120°18'0 0.0
2018-Jul-14 16:19N 22°35' E 120°18'0 0.0
2018-Jul-14 12:07N 22°35' E 120°18'0 0.0
2018-Jul-14 11:37N 22°35' E 120°18'0 0.0
2018-Jul-14 11:13N 22°35' E 120°18'0 0.0
2018-Jul-14 10:49N 22°35' E 120°18'0 0.0
2018-Jul-14 10:25N 22°35' E 120°18'0 0.0
2018-Jul-14 09:55N 22°35' E 120°18'0 0.0
2018-Jul-14 09:25N 22°35' E 120°18'0 0.1
2018-Jul-14 09:00N 22°35' E 120°18'3 6.2
2018-Jul-14 08:30N 22°37' E 120°16'3 6.7
2018-Jul-14 07:59N 22°37' E 120°12'4 7.5
2018-Jul-14 07:30N 22°40' E 120°09'713.9
2018-Jul-14 07:00N 22°46' E 120°05'  
2018-Jul-08 00:12N 34°55' E 139°27'313.4
2018-Jul-08 00:00N 34°57' E 139°30'713.6
2018-Jul-07 23:30N 35°01' E 139°37'715.2
2018-Jul-07 23:00N 35°06' E 139°43'612.6
2018-Jul-07 22:30N 35°12' E 139°46'510.9
2018-Jul-07 22:00N 35°18' E 139°45'612.1
2018-Jul-07 21:30N 35°23' E 139°42'4 7.0
2018-Jul-07 21:00N 35°27' E 139°41'0 0.5
2018-Jul-07 20:30N 35°26' E 139°41'0 0.0
2018-Jul-07 20:00N 35°26' E 139°41'0 0.0
2018-Jul-07 19:30N 35°26' E 139°41'0 0.0
2018-Jul-07 19:00N 35°26' E 139°41'0 0.0
2018-Jul-07 18:30N 35°26' E 139°41'0 0.0
2018-Jul-07 18:00N 35°26' E 139°41'0 0.0
2018-Jul-07 17:30N 35°26' E 139°41'0 0.0
2018-Jul-07 17:00N 35°26' E 139°41'0 0.0
2018-Jul-07 16:30N 35°26' E 139°41'0 0.0
2018-Jul-07 16:00N 35°26' E 139°41'0 0.0
2018-Jul-07 15:30N 35°26' E 139°41'0 0.0
2018-Jul-07 15:00N 35°26' E 139°41'0 0.0
2018-Jul-07 14:30N 35°26' E 139°41'0 0.0
2018-Jul-07 14:00N 35°26' E 139°41'0 0.0
2018-Jul-07 13:30N 35°26' E 139°41'0 0.0
2018-Jul-07 13:00N 35°26' E 139°41'0 0.0
2018-Jul-07 12:30N 35°26' E 139°41'0 0.0
2018-Jul-07 12:00N 35°26' E 139°41'0 0.0
2018-Jul-07 11:30N 35°26' E 139°41'0 0.0
2018-Jul-07 11:00N 35°26' E 139°41'0 0.0
2018-Jul-07 10:30N 35°26' E 139°41'0 0.0
2018-Jul-07 10:00N 35°26' E 139°41'0 0.0
2018-Jul-07 09:30N 35°26' E 139°41'0 0.6
2018-Jul-07 09:00N 35°27' E 139°41'2 4.0
2018-Jul-07 08:30N 35°26' E 139°43'0 0.3
2018-Jul-07 08:01N 35°25' E 139°43'0 0.1
2018-Jul-07 07:30N 35°25' E 139°43'0 0.1
2018-Jul-07 07:00N 35°25' E 139°43'0 0.1
2018-Jul-07 06:30N 35°25' E 139°43'0 0.0
2018-Jul-07 06:00N 35°25' E 139°43'0 0.0
2018-Jul-07 05:30N 35°25' E 139°43'0 0.0
2018-Jul-07 05:01N 35°25' E 139°43'0 0.0
2018-Jul-07 04:30N 35°25' E 139°43'0 0.1
2018-Jul-07 04:01N 35°25' E 139°43'0 0.2
2018-Jul-07 03:31N 35°25' E 139°43'4 7.3
2018-Jul-07 03:01N 35°27' E 139°47'612.2
2018-Jul-07 02:30N 35°33' E 139°51'5 9.6
2018-Jul-07 02:00N 35°36' E 139°46'0 0.3
2018-Jul-07 01:27N 35°36' E 139°46'0 0.0
2018-Jul-07 00:57N 35°36' E 139°46'0 0.0
2018-Jul-07 00:27N 35°36' E 139°46'0 0.0
2018-Jul-06 23:51N 35°36' E 139°46'0 0.0
2018-Jul-06 19:30N 35°36' E 139°46'0 0.0
2018-Jul-06 18:57N 35°36' E 139°46'0 0.0
2018-Jul-06 16:42N 35°36' E 139°46'0 0.0
2018-Jul-06 16:27N 35°36' E 139°46'0 0.0
2018-Jul-06 16:00N 35°36' E 139°46'  
Track history (hours):
 
Tides and Currents Weather Stations Pressure Air Temp Water Temp Dewpoint Dewpoint Depression Visibility Wind Speed Wind Dir Waves Ship Positions

Wan Hai 221

Last reported at 2018-Jul-16 15:49 UTC. Time now 2018-Jul-22 12:41 UTC.
Position N 22°20' E 114°07'.

Length 162 m; draft 5.3 m.

Type: Cargo ship. MMSI: 564461570.

Date/timePositionNaut miles runAvg speedWind from/ knotsBaromVisibWave heightAir tempDewpointWater temp
2018-Jul-16 15:49N 22°20' E 114°07'1 0.1
2018-Jul-15 23:49N 22°21' E 114°07'31012.9
2018-Jul-14 23:46N 22°32' E 119°42'515.1
2018-Jul-14 23:28N 22°32' E 119°47'815.1
2018-Jul-14 22:57N 22°32' E 119°56'714.9
2018-Jul-14 22:30N 22°32' E 120°03'714.7
2018-Jul-14 22:00N 22°32' E 120°11'612.3
2018-Jul-14 21:30N 22°33' E 120°18'2 3.7
2018-Jul-14 21:00N 22°35' E 120°18'0 0.1
2018-Jul-14 20:19N 22°35' E 120°18'0 0.0
2018-Jul-14 18:43N 22°35' E 120°18'0 0.0
2018-Jul-14 18:13N 22°35' E 120°18'0 0.0
2018-Jul-14 17:07N 22°35' E 120°18'0 0.0
2018-Jul-14 16:49N 22°35' E 120°18'0 0.0
2018-Jul-14 16:19N 22°35' E 120°18'0 0.0
2018-Jul-14 12:07N 22°35' E 120°18'0 0.0
2018-Jul-14 11:37N 22°35' E 120°18'0 0.0
2018-Jul-14 11:13N 22°35' E 120°18'0 0.0
2018-Jul-14 10:49N 22°35' E 120°18'0 0.0
2018-Jul-14 10:25N 22°35' E 120°18'0 0.0
2018-Jul-14 09:55N 22°35' E 120°18'0 0.0
2018-Jul-14 09:25N 22°35' E 120°18'0 0.1
2018-Jul-14 09:00N 22°35' E 120°18'3 6.2
2018-Jul-14 08:30N 22°37' E 120°16'3 6.7
2018-Jul-14 07:59N 22°37' E 120°12'4 7.5
2018-Jul-14 07:30N 22°40' E 120°09'713.9
2018-Jul-14 07:00N 22°46' E 120°05'  
2018-Jul-08 00:12N 34°55' E 139°27'313.4
2018-Jul-08 00:00N 34°57' E 139°30'713.6
2018-Jul-07 23:30N 35°01' E 139°37'715.2
2018-Jul-07 23:00N 35°06' E 139°43'612.6
2018-Jul-07 22:30N 35°12' E 139°46'510.9
2018-Jul-07 22:00N 35°18' E 139°45'612.1
2018-Jul-07 21:30N 35°23' E 139°42'4 7.0
2018-Jul-07 21:00N 35°27' E 139°41'0 0.5
2018-Jul-07 20:30N 35°26' E 139°41'0 0.0
2018-Jul-07 20:00N 35°26' E 139°41'0 0.0
2018-Jul-07 19:30N 35°26' E 139°41'0 0.0
2018-Jul-07 19:00N 35°26' E 139°41'0 0.0
2018-Jul-07 18:30N 35°26' E 139°41'0 0.0
2018-Jul-07 18:00N 35°26' E 139°41'0 0.0
2018-Jul-07 17:30N 35°26' E 139°41'0 0.0
2018-Jul-07 17:00N 35°26' E 139°41'0 0.0
2018-Jul-07 16:30N 35°26' E 139°41'0 0.0
2018-Jul-07 16:00N 35°26' E 139°41'0 0.0
2018-Jul-07 15:30N 35°26' E 139°41'0 0.0
2018-Jul-07 15:00N 35°26' E 139°41'0 0.0
2018-Jul-07 14:30N 35°26' E 139°41'0 0.0
2018-Jul-07 14:00N 35°26' E 139°41'0 0.0
2018-Jul-07 13:30N 35°26' E 139°41'0 0.0
2018-Jul-07 13:00N 35°26' E 139°41'0 0.0
2018-Jul-07 12:30N 35°26' E 139°41'0 0.0
2018-Jul-07 12:00N 35°26' E 139°41'0 0.0
2018-Jul-07 11:30N 35°26' E 139°41'0 0.0
2018-Jul-07 11:00N 35°26' E 139°41'0 0.0
2018-Jul-07 10:30N 35°26' E 139°41'0 0.0
2018-Jul-07 10:00N 35°26' E 139°41'0 0.0
2018-Jul-07 09:30N 35°26' E 139°41'0 0.6
2018-Jul-07 09:00N 35°27' E 139°41'2 4.0
2018-Jul-07 08:30N 35°26' E 139°43'0 0.3
2018-Jul-07 08:01N 35°25' E 139°43'0 0.1
2018-Jul-07 07:30N 35°25' E 139°43'0 0.1
2018-Jul-07 07:00N 35°25' E 139°43'0 0.1
2018-Jul-07 06:30N 35°25' E 139°43'0 0.0
2018-Jul-07 06:00N 35°25' E 139°43'0 0.0
2018-Jul-07 05:30N 35°25' E 139°43'0 0.0
2018-Jul-07 05:01N 35°25' E 139°43'0 0.0
2018-Jul-07 04:30N 35°25' E 139°43'0 0.1
2018-Jul-07 04:01N 35°25' E 139°43'0 0.2
2018-Jul-07 03:31N 35°25' E 139°43'4 7.3
2018-Jul-07 03:01N 35°27' E 139°47'612.2
2018-Jul-07 02:30N 35°33' E 139°51'5 9.6
2018-Jul-07 02:00N 35°36' E 139°46'0 0.3
2018-Jul-07 01:27N 35°36' E 139°46'0 0.0
2018-Jul-07 00:57N 35°36' E 139°46'0 0.0
2018-Jul-07 00:27N 35°36' E 139°46'0 0.0
2018-Jul-06 23:51N 35°36' E 139°46'0 0.0
2018-Jul-06 19:30N 35°36' E 139°46'0 0.0
2018-Jul-06 18:57N 35°36' E 139°46'0 0.0
2018-Jul-06 16:42N 35°36' E 139°46'0 0.0
2018-Jul-06 16:27N 35°36' E 139°46'0 0.0
2018-Jul-06 16:00N 35°36' E 139°46'  

Dump ship's entire track history